Time;durP1;ratioP1;P1;durP2;ratioP2;P2;SDS_P1;SDS_P2;PMS_P1;PMS_P2;Temp;Humidity;BMP_temperature;BMP_pressure;BME280_temperature;BME280_humidity;BME280_pressure;Samples;Min_cycle;Max_cycle;Signal;HPM_P1;HPM_P2
2023/02/11 09:33:46;;;;;;;95.38;41.75;;;;;;;;;;4903836;29;20478;-92
2023/02/11 09:36:14;;;;;;;95.88;42.75;;;;;;;;;;4888598;29;20425;-93
2023/02/11 09:38:40;;;;;;;92.65;40.17;;;;;;;;;;4888801;29;20103;-92
2023/02/11 09:41:13;;;;;;;88.95;40.63;;;;;;;;;;4904968;29;20048;-92
2023/02/11 09:43:44;;;;;;;69.13;36.03;;;;;;;;;;4888165;29;20033;-92
2023/02/11 09:46:14;;;;;;;67.72;37.08;;;;;;;;;;4888789;29;20020;-90
2023/02/11 09:48:42;;;;;;;66.05;34.15;;;;;;;;;;4905041;29;20025;-91
2023/02/11 09:51:15;;;;;;;69.95;33.97;;;;;;;;;;4888575;29;20040;-92
2023/02/11 09:53:42;;;;;;;72.80;35.42;;;;;;;;;;4903778;29;20108;-92
2023/02/11 09:56:13;;;;;;;61.67;34.47;;;;;;;;;;4888496;29;20406;-92
2023/02/11 09:58:40;;;;;;;61.08;32.90;;;;;;;;;;4904907;29;20037;-90
2023/02/11 10:01:12;;;;;;;66.45;34.38;;;;;;;;;;4888281;29;20039;-92
2023/02/11 10:03:47;;;;;;;73.18;36.63;;;;;;;;;;4904772;29;20025;-92
2023/02/11 10:06:36;;;;;;;58.67;33.92;;;;;;;;;;4880484;29;20068;-93
2023/02/11 10:09:08;;;;;;;56.92;31.40;;;;;;;;;;4869614;29;20037;-91
2023/02/11 10:11:37;;;;;;;62.78;34.78;;;;;;;;;;4892577;29;20035;-90
2023/02/11 10:14:09;;;;;;;64.72;33.58;;;;;;;;;;4895270;29;20435;-91
2023/02/11 10:16:39;;;;;;;71.82;37.72;;;;;;;;;;4880585;29;20123;-90
2023/02/11 10:19:23;;;;;;;68.57;37.42;;;;;;;;;;4884164;29;20052;-91
2023/02/11 10:22:01;;;;;;;68.00;35.80;;;;;;;;;;4886425;29;20061;-92
2023/02/11 10:24:27;;;;;;;87.30;44.58;;;;;;;;;;4877922;29;20029;-90
2023/02/11 10:26:54;;;;;;;74.85;40.78;;;;;;;;;;4875062;29;20049;-90
2023/02/11 10:29:36;;;;;;;63.78;34.63;;;;;;;;;;4897504;29;20064;-93
2023/02/11 10:32:05;;;;;;;55.67;33.08;;;;;;;;;;4907365;29;20048;-89
2023/02/11 10:34:32;;;;;;;68.18;39.17;;;;;;;;;;4911164;29;20051;-90
2023/02/11 10:36:59;;;;;;;59.30;33.10;;;;;;;;;;4892051;29;20063;-93
2023/02/11 10:39:26;;;;;;;61.08;34.25;;;;;;;;;;4908302;29;20039;-91
2023/02/11 10:41:54;;;;;;;59.08;31.77;;;;;;;;;;4912663;29;20037;-90
2023/02/11 10:44:29;;;;;;;56.78;32.95;;;;;;;;;;4910351;29;20419;-92
2023/02/11 10:46:56;;;;;;;59.28;32.92;;;;;;;;;;4914976;29;20115;-89
2023/02/11 10:49:36;;;;;;;56.97;34.83;;;;;;;;;;4905369;29;20053;-87
2023/02/11 10:52:13;;;;;;;63.30;36.20;;;;;;;;;;4920680;29;20056;-88
2023/02/11 10:54:39;;;;;;;74.53;39.90;;;;;;;;;;4910897;29;20447;-87
2023/02/11 10:57:06;;;;;;;85.10;40.60;;;;;;;;;;4912033;29;20051;-87
2023/02/11 11:02:56;;;;;;;58.53;33.67;;;;;;;;;;4916205;29;20047;-88
2023/02/11 11:05:28;;;;;;;54.00;30.42;;;;;;;;;;4920954;29;20103;-88
2023/02/11 11:08:05;;;;;;;60.25;29.98;;;;;;;;;;4904499;29;20052;-87
2023/02/11 11:10:45;;;;;;;63.20;32.47;;;;;;;;;;4903133;29;20039;-84
2023/02/11 11:13:23;;;;;;;55.72;31.63;;;;;;;;;;4922680;29;20044;-84
2023/02/11 11:16:06;;;;;;;58.05;31.63;;;;;;;;;;4895969;29;20028;-83
2023/02/11 11:18:32;;;;;;;;;;;;;;;;;;4904295;29;20029;-83
2023/02/11 11:21:00;;;;;;;84.60;39.85;;;;;;;;;;4913800;29;19910;-83
2023/02/11 11:23:27;;;;;;;55.67;30.63;;;;;;;;;;4901503;29;20471;-83
2023/02/11 11:26:01;;;;;;;59.15;31.08;;;;;;;;;;4908511;29;20084;-83
2023/02/11 11:28:28;;;;;;;66.55;35.45;;;;;;;;;;4901466;29;20035;-86
2023/02/11 11:30:57;;;;;;;60.58;34.03;;;;;;;;;;4904845;29;20327;-84
2023/02/11 11:33:30;;;;;;;56.05;30.98;;;;;;;;;;4894645;29;20097;-83
2023/02/11 11:36:16;;;;;;;60.03;31.45;;;;;;;;;;4900259;29;20100;-84
2023/02/11 11:38:56;;;;;;;71.00;36.40;;;;;;;;;;4899320;29;20372;-84
2023/02/11 11:41:28;;;;;;;76.90;35.92;;;;;;;;;;4912855;29;20040;-84
2023/02/11 11:43:57;;;;;;;83.07;38.80;;;;;;;;;;4911416;29;20032;-85
2023/02/11 11:46:25;;;;;;;68.82;36.25;;;;;;;;;;4908920;29;20032;-84
2023/02/11 11:48:53;;;;;;;70.18;36.22;;;;;;;;;;4903146;29;20033;-84
2023/02/11 11:51:20;;;;;;;66.05;35.05;;;;;;;;;;4901799;29;20127;-84
2023/02/11 11:54:12;;;;;;;85.88;43.00;;;;;;;;;;4902454;29;20316;-83
2023/02/11 11:56:50;;;;;;;73.35;36.55;;;;;;;;;;4884358;29;20036;-84
2023/02/11 11:59:16;;;;;;;61.63;31.75;;;;;;;;;;4912473;29;20036;-83
2023/02/11 12:02:01;;;;;;;67.35;33.90;;;;;;;;;;4921390;29;20028;-83
2023/02/11 12:04:45;;;;;;;64.05;34.10;;;;;;;;;;4921535;29;20056;-84
2023/02/11 12:07:39;;;;;;;68.70;35.00;;;;;;;;;;4916807;29;20104;-83
2023/02/11 12:10:14;;;;;;;59.58;33.00;;;;;;;;;;4844905;29;20034;-84
2023/02/11 12:12:40;;;;;;;51.80;28.75;;;;;;;;;;4845182;29;20033;-84
2023/02/11 12:15:24;;;;;;;46.83;25.90;;;;;;;;;;4828393;29;20030;-83
2023/02/11 12:18:13;;;;;;;52.45;29.35;;;;;;;;;;4828843;29;20033;-83
2023/02/11 12:20:39;;;;;;;62.55;33.47;;;;;;;;;;4844866;29;20068;-83
2023/02/11 12:23:16;;;;;;;61.17;31.27;;;;;;;;;;4844141;29;20618;-83
2023/02/11 12:25:48;;;;;;;52.60;31.13;;;;;;;;;;4843820;29;20117;-83
2023/02/11 12:28:17;;;;;;;51.67;29.50;;;;;;;;;;4844874;29;20040;-84
2023/02/11 12:31:13;;;;;;;47.75;28.70;;;;;;;;;;4829290;29;20038;-84
2023/02/11 12:33:39;;;;;;;57.55;31.48;;;;;;;;;;4826733;29;20054;-84
2023/02/11 12:36:14;;;;;;;52.95;30.40;;;;;;;;;;4809176;29;20122;-85
2023/02/11 12:38:43;;;;;;;57.80;30.30;;;;;;;;;;4808846;29;20043;-85
2023/02/11 12:43:15;;;;;;;54.85;28.45;;;;;;;;;;4809241;29;20211;-84
2023/02/11 12:44:16;;;;;;;50.60;29.60;;;;;;;;;;4808751;29;20035;-84
2023/02/11 12:46:45;;;;;;;54.65;29.00;;;;;;;;;;4824761;29;20077;-84
2023/02/11 12:49:16;;;;;;;52.90;28.88;;;;;;;;;;4844804;29;20026;-83
2023/02/11 12:51:45;;;;;;;57.85;30.08;;;;;;;;;;4841620;29;20038;-84
2023/02/11 12:54:17;;;;;;;55.20;30.02;;;;;;;;;;4814920;29;20049;-84
2023/02/11 12:56:52;;;;;;;57.20;30.33;;;;;;;;;;4830339;29;20123;-83
2023/02/11 12:59:36;;;;;;;52.40;29.92;;;;;;;;;;4829583;29;20147;-83
2023/02/11 13:02:42;;;;;;;58.40;34.15;;;;;;;;;;4840726;29;20035;-83
2023/02/11 13:05:21;;;;;;;57.92;32.47;;;;;;;;;;4789442;30;20454;-83
2023/02/11 13:07:48;;;;;;;54.50;31.23;;;;;;;;;;4782835;29;20082;-84
2023/02/11 13:10:14;;;;;;;59.67;33.13;;;;;;;;;;4798288;29;20046;-83
2023/02/11 13:13:16;;;;;;;53.03;29.52;;;;;;;;;;4812342;29;20091;-83
2023/02/11 13:15:36;;;;;;;52.80;29.52;;;;;;;;;;4808232;29;20073;-83
2023/02/11 13:18:12;;;;;;;75.60;38.95;;;;;;;;;;4821919;29;20561;-82
2023/02/11 13:20:41;;;;;;;51.92;28.38;;;;;;;;;;4808086;29;20031;-83
2023/02/11 13:23:23;;;;;;;60.50;31.98;;;;;;;;;;4821051;29;20046;-84
2023/02/11 13:25:59;;;;;;;59.03;30.30;;;;;;;;;;4815777;29;20041;-83
2023/02/11 13:28:27;;;;;;;70.30;39.83;;;;;;;;;;4827355;29;20483;-84
2023/02/11 13:31:07;;;;;;;62.25;33.50;;;;;;;;;;4828896;29;20034;-83
2023/02/11 13:33:38;;;;;;;52.97;30.50;;;;;;;;;;4802193;29;20867;-83
2023/02/11 13:36:04;;;;;;;54.15;29.80;;;;;;;;;;4849260;29;20040;-82
2023/02/11 13:38:31;;;;;;;52.30;28.80;;;;;;;;;;4886755;29;20033;-82
2023/02/11 13:41:17;;;;;;;54.58;28.95;;;;;;;;;;4885059;29;20032;-83
2023/02/11 13:43:43;;;;;;;45.65;28.05;;;;;;;;;;4886379;29;20030;-83
2023/02/11 13:46:13;;;;;;;60.42;34.47;;;;;;;;;;4889247;29;20033;-83
2023/02/11 13:48:47;;;;;;;58.60;29.85;;;;;;;;;;4892448;29;20037;-82
2023/02/11 13:51:15;;;;;;;47.25;26.42;;;;;;;;;;4895437;29;20111;-84
2023/02/11 13:53:47;;;;;;;45.85;27.95;;;;;;;;;;4900881;29;20039;-84
2023/02/11 13:56:23;;;;;;;65.15;35.65;;;;;;;;;;4904882;29;20028;-84
2023/02/11 13:58:51;;;;;;;56.08;30.42;;;;;;;;;;4904673;29;20416;-83
2023/02/11 14:10:48;;;;;;;49.50;28.33;;;;;;;;;;4844362;29;20054;-83
2023/02/11 14:13:17;;;;;;;45.17;25.58;;;;;;;;;;4893753;29;20045;-82
2023/02/11 14:15:45;;;;;;;52.65;28.17;;;;;;;;;;4869169;29;20025;-83
2023/02/11 14:18:30;;;;;;;52.10;29.80;;;;;;;;;;4895372;29;20033;-83
2023/02/11 14:21:06;;;;;;;86.32;36.80;;;;;;;;;;4891713;29;20057;-83
2023/02/11 14:23:32;;;;;;;58.90;29.02;;;;;;;;;;4894735;29;20480;-83
2023/02/11 14:26:24;;;;;;;69.60;30.98;;;;;;;;;;4895952;29;20056;-83
2023/02/11 14:28:54;;;;;;;59.42;29.08;;;;;;;;;;4894241;29;20360;-83
2023/02/11 14:31:26;;;;;;;48.90;28.40;;;;;;;;;;4892154;29;20121;-83
2023/02/11 14:33:58;;;;;;;48.30;28.00;;;;;;;;;;4893919;29;20115;-82
2023/02/11 14:36:47;;;;;;;56.40;29.40;;;;;;;;;;4913528;29;20255;-83
2023/02/11 14:39:13;;;;;;;46.58;28.55;;;;;;;;;;4910774;29;20039;-83
2023/02/11 14:41:41;;;;;;;43.53;25.65;;;;;;;;;;4913521;29;20040;-82
2023/02/11 14:44:15;;;;;;;48.58;28.27;;;;;;;;;;4914373;29;20408;-82
2023/02/11 14:46:46;;;;;;;50.20;29.35;;;;;;;;;;4916025;29;20032;-83
2023/02/11 14:49:33;;;;;;;48.17;28.20;;;;;;;;;;4922063;29;20028;-82
2023/02/11 14:52:03;;;;;;;51.55;27.73;;;;;;;;;;4910116;29;20037;-82
2023/02/11 14:54:30;;;;;;;51.15;28.08;;;;;;;;;;4921523;29;20076;-83
2023/02/11 14:57:13;;;;;;;57.25;30.30;;;;;;;;;;4905141;29;20127;-83
2023/02/11 14:59:39;;;;;;;56.72;32.15;;;;;;;;;;4922393;29;20050;-83
2023/02/11 15:02:28;;;;;;;57.17;32.78;;;;;;;;;;4908671;29;20043;-83
2023/02/11 15:04:54;;;;;;;58.28;33.90;;;;;;;;;;4886991;29;20328;-83
2023/02/11 15:07:20;;;;;;;73.35;38.20;;;;;;;;;;4894004;29;20043;-83
2023/02/11 15:09:49;;;;;;;69.93;37.10;;;;;;;;;;4921030;29;20032;-82
2023/02/11 15:12:18;;;;;;;64.10;35.65;;;;;;;;;;4917120;29;20052;-82
2023/02/11 15:14:46;;;;;;;68.15;34.65;;;;;;;;;;4903276;29;20036;-82
2023/02/11 15:17:14;;;;;;;72.70;34.08;;;;;;;;;;4903517;29;20031;-83
2023/02/11 15:19:42;;;;;;;74.40;38.88;;;;;;;;;;4903231;29;20033;-83
2023/02/11 15:22:17;;;;;;;77.07;40.55;;;;;;;;;;4909716;29;20024;-82
2023/02/11 15:24:43;;;;;;;70.50;38.60;;;;;;;;;;4903049;29;20019;-82
2023/02/11 15:27:17;;;;;;;67.57;38.05;;;;;;;;;;4910186;29;20376;-83
2023/02/11 15:29:48;;;;;;;74.22;39.38;;;;;;;;;;4903379;29;20313;-84
2023/02/11 15:32:15;;;;;;;76.60;39.65;;;;;;;;;;4903940;29;20052;-83
2023/02/11 15:34:42;;;;;;;84.78;42.15;;;;;;;;;;4903169;29;20475;-83
2023/02/11 15:37:35;;;;;;;87.82;44.25;;;;;;;;;;4912743;29;20111;-83
2023/02/11 15:40:09;;;;;;;91.40;47.35;;;;;;;;;;4902048;29;20037;-84
2023/02/11 15:42:35;;;;;;;78.75;42.50;;;;;;;;;;4921953;29;20036;-83
2023/02/11 15:45:07;;;;;;;73.03;41.50;;;;;;;;;;4914415;29;20086;-84
2023/02/11 15:47:34;;;;;;;77.55;44.05;;;;;;;;;;4901891;29;20073;-83
2023/02/11 15:50:00;;;;;;;76.60;43.75;;;;;;;;;;4902788;29;20037;-84
2023/02/11 15:52:27;;;;;;;77.55;44.20;;;;;;;;;;4903026;29;20065;-84
2023/02/11 15:54:55;;;;;;;77.85;46.83;;;;;;;;;;4903743;29;20028;-83
2023/02/11 15:57:22;;;;;;;79.53;47.35;;;;;;;;;;4891664;29;20119;-84
2023/02/11 15:59:50;;;;;;;87.60;51.05;;;;;;;;;;4912810;29;20036;-84
2023/02/11 16:02:43;;;;;;;86.13;48.88;;;;;;;;;;4889198;29;20432;-84
2023/02/11 16:05:23;;;;;;;69.55;39.55;;;;;;;;;;4918435;29;20163;-84
2023/02/11 16:07:50;;;;;;;65.43;37.72;;;;;;;;;;4914953;29;20024;-84
2023/02/11 16:10:19;;;;;;;68.40;38.03;;;;;;;;;;4919105;29;20043;-83
2023/02/11 16:13:03;;;;;;;68.75;39.50;;;;;;;;;;4914429;29;20032;-84
2023/02/11 16:15:32;;;;;;;91.72;50.30;;;;;;;;;;4921385;29;20103;-84
2023/02/11 16:17:59;;;;;;;126.07;64.95;;;;;;;;;;4920111;29;20107;-84
2023/02/11 16:20:26;;;;;;;106.00;55.53;;;;;;;;;;4916933;29;20442;-83
2023/02/11 16:22:52;;;;;;;89.00;45.70;;;;;;;;;;4906946;29;20111;-82
2023/02/11 16:25:21;;;;;;;74.32;41.17;;;;;;;;;;4903711;29;20439;-83
2023/02/11 16:27:48;;;;;;;77.60;41.60;;;;;;;;;;4912636;29;20032;-83
2023/02/11 16:30:35;;;;;;;81.68;43.28;;;;;;;;;;4901942;29;20032;-84
2023/02/11 16:33:01;;;;;;;73.55;42.33;;;;;;;;;;4906373;29;20072;-83
2023/02/11 16:35:27;;;;;;;82.15;43.28;;;;;;;;;;4893703;29;20115;-83
2023/02/11 16:37:54;;;;;;;79.70;42.92;;;;;;;;;;4908802;29;20079;-83
2023/02/11 16:40:22;;;;;;;101.53;49.72;;;;;;;;;;4918682;29;20315;-84
2023/02/11 16:42:48;;;;;;;95.10;49.10;;;;;;;;;;4907186;29;20373;-84
2023/02/11 16:45:14;;;;;;;98.10;51.58;;;;;;;;;;4920193;29;20118;-84
2023/02/11 16:47:41;;;;;;;107.55;57.67;;;;;;;;;;4891261;29;20123;-84
2023/02/11 16:50:08;;;;;;;90.55;52.83;;;;;;;;;;4902248;29;20020;-83
2023/02/11 16:52:36;;;;;;;82.03;48.25;;;;;;;;;;4884955;29;20049;-84
2023/02/11 16:55:03;;;;;;;69.90;43.65;;;;;;;;;;4907031;29;20048;-84
2023/02/11 16:57:30;;;;;;;71.55;42.03;;;;;;;;;;4918773;29;20036;-84
2023/02/11 16:59:57;;;;;;;63.97;38.42;;;;;;;;;;4902043;29;20028;-84
2023/02/11 17:02:25;;;;;;;58.17;34.17;;;;;;;;;;4903583;29;20037;-83
2023/02/11 17:04:55;;;;;;;64.07;37.13;;;;;;;;;;4905906;29;20029;-90
2023/02/11 17:07:21;;;;;;;74.28;42.45;;;;;;;;;;4908389;29;20032;-84
2023/02/11 17:09:47;;;;;;;99.72;55.05;;;;;;;;;;4905185;29;20025;-82
2023/02/11 17:12:13;;;;;;;123.22;65.70;;;;;;;;;;4919243;29;20040;-84
2023/02/11 17:14:39;;;;;;;144.82;81.65;;;;;;;;;;4893672;29;20128;-82
2023/02/11 17:17:05;;;;;;;126.82;72.22;;;;;;;;;;4907774;29;20033;-84
2023/02/11 17:19:31;;;;;;;157.15;95.43;;;;;;;;;;4905206;29;20057;-84
2023/02/11 17:21:57;;;;;;;116.75;70.63;;;;;;;;;;4905590;29;20111;-83
2023/02/11 17:24:23;;;;;;;111.20;59.38;;;;;;;;;;4907159;29;20044;-83
2023/02/11 17:26:50;;;;;;;137.30;71.25;;;;;;;;;;4924162;29;20024;-84
2023/02/11 17:29:17;;;;;;;124.68;59.78;;;;;;;;;;4923744;29;20032;-84
2023/02/11 17:31:43;;;;;;;149.13;67.28;;;;;;;;;;4920807;29;20321;-86
2023/02/11 17:34:10;;;;;;;160.38;72.97;;;;;;;;;;4915078;29;20414;-84
2023/02/11 17:36:36;;;;;;;183.93;89.60;;;;;;;;;;4916546;29;20094;-84
2023/02/11 17:39:03;;;;;;;159.32;67.20;;;;;;;;;;4912964;29;20424;-83
2023/02/11 17:41:29;;;;;;;182.65;71.32;;;;;;;;;;4905424;29;20041;-84
2023/02/11 17:43:58;;;;;;;212.57;77.80;;;;;;;;;;4905418;29;20032;-84
2023/02/11 17:46:24;;;;;;;171.80;69.15;;;;;;;;;;4888287;29;20052;-84
2023/02/11 17:48:52;;;;;;;127.80;57.35;;;;;;;;;;4889150;29;20040;-84
2023/02/11 17:51:24;;;;;;;131.48;63.60;;;;;;;;;;4905516;29;20446;-84
2023/02/11 17:53:50;;;;;;;123.28;61.38;;;;;;;;;;4904949;29;20032;-84
2023/02/11 17:56:16;;;;;;;104.38;53.00;;;;;;;;;;4903456;29;20078;-84
2023/02/11 17:58:42;;;;;;;121.10;59.83;;;;;;;;;;4913483;29;20028;-85
2023/02/11 18:01:20;;;;;;;139.00;67.15;;;;;;;;;;4890102;29;20403;-85
2023/02/11 18:03:47;;;;;;;131.30;63.33;;;;;;;;;;4913805;29;20048;-84
2023/02/11 18:06:13;;;;;;;145.40;63.40;;;;;;;;;;4908093;29;20475;-84
2023/02/11 18:08:40;;;;;;;165.07;70.10;;;;;;;;;;4910337;29;20111;-92
2023/02/11 18:11:08;;;;;;;116.25;58.30;;;;;;;;;;4901686;29;20036;-87
2023/02/11 18:13:34;;;;;;;119.35;56.53;;;;;;;;;;4919234;29;20478;-85
2023/02/11 18:16:07;;;;;;;144.52;64.40;;;;;;;;;;4908120;29;20416;-89
2023/02/11 18:21:36;;;;;;;153.20;69.15;;;;;;;;;;4913369;29;20136;-84
2023/02/11 18:24:04;;;;;;;200.05;82.95;;;;;;;;;;4909372;29;20036;-85
2023/02/11 18:26:30;;;;;;;241.80;88.38;;;;;;;;;;4906298;29;20036;-85
2023/02/11 18:28:59;;;;;;;213.93;84.38;;;;;;;;;;4909221;29;20446;-85
2023/02/11 18:34:30;;;;;;;144.02;64.65;;;;;;;;;;4904334;29;20092;-86
2023/02/11 18:36:56;;;;;;;198.35;86.38;;;;;;;;;;4903375;29;20104;-86
2023/02/11 18:39:23;;;;;;;431.45;158.27;;;;;;;;;;4913156;29;20071;-86
2023/02/11 18:41:53;;;;;;;495.80;203.95;;;;;;;;;;4903654;29;20076;-85
2023/02/11 18:44:21;;;;;;;313.23;132.63;;;;;;;;;;4902675;29;20040;-84
2023/02/11 18:46:47;;;;;;;146.90;71.93;;;;;;;;;;4904106;29;20032;-86
2023/02/11 18:49:14;;;;;;;144.07;69.47;;;;;;;;;;4911583;29;20044;-86
2023/02/11 18:51:40;;;;;;;136.25;66.80;;;;;;;;;;4889143;29;20021;-86
2023/02/11 18:54:06;;;;;;;129.45;64.55;;;;;;;;;;4904588;29;20036;-86
2023/02/11 18:56:32;;;;;;;106.25;54.28;;;;;;;;;;4918212;29;20407;-85
2023/02/11 18:59:00;;;;;;;106.80;54.50;;;;;;;;;;4922929;29;20343;-87
2023/02/11 19:02:00;;;;;;;114.70;53.97;;;;;;;;;;4922712;29;20044;-86
2023/02/11 19:04:27;;;;;;;102.45;47.40;;;;;;;;;;4921889;29;20104;-87
2023/02/11 19:06:53;;;;;;;83.03;43.15;;;;;;;;;;4919901;29;20037;-85
2023/02/11 19:09:19;;;;;;;81.88;42.00;;;;;;;;;;4903331;29;20029;-86
2023/02/11 19:11:46;;;;;;;82.35;43.95;;;;;;;;;;4896073;29;20040;-86
2023/02/11 19:14:13;;;;;;;92.55;46.42;;;;;;;;;;4922612;29;20028;-86
2023/02/11 19:17:11;;;;;;;87.68;45.65;;;;;;;;;;4919552;29;20027;-86
2023/02/11 19:19:37;;;;;;;111.90;54.80;;;;;;;;;;4912521;29;20024;-86
2023/02/11 19:22:06;;;;;;;142.60;61.63;;;;;;;;;;4902302;29;20044;-86
2023/02/11 19:24:33;;;;;;;254.88;111.28;;;;;;;;;;4908095;29;20423;-86
2023/02/11 19:27:00;;;;;;;178.68;80.28;;;;;;;;;;4907635;29;20079;-84
2023/02/11 19:29:27;;;;;;;234.50;108.47;;;;;;;;;;4908459;29;20103;-85
2023/02/11 19:31:53;;;;;;;202.00;86.72;;;;;;;;;;4910052;29;20478;-85
2023/02/11 19:34:20;;;;;;;202.80;90.55;;;;;;;;;;4910438;29;20044;-85
2023/02/11 19:36:47;;;;;;;165.80;75.63;;;;;;;;;;4893486;29;20036;-86
2023/02/11 19:39:13;;;;;;;176.93;79.63;;;;;;;;;;4891293;29;20115;-85
2023/02/11 19:41:39;;;;;;;135.30;63.83;;;;;;;;;;4913459;29;20024;-84
2023/02/11 19:44:06;;;;;;;111.40;55.50;;;;;;;;;;4898064;29;20031;-86
2023/02/11 19:46:34;;;;;;;111.18;58.17;;;;;;;;;;4909215;29;20400;-85
2023/02/11 19:49:00;;;;;;;128.48;61.83;;;;;;;;;;4894417;29;20377;-86
2023/02/11 19:51:26;;;;;;;117.57;57.38;;;;;;;;;;4898737;29;20088;-87
2023/02/11 19:53:52;;;;;;;124.43;60.70;;;;;;;;;;4912231;29;20416;-86
2023/02/11 19:56:19;;;;;;;126.45;63.10;;;;;;;;;;4913254;29;20064;-87
2023/02/11 19:58:45;;;;;;;131.77;64.80;;;;;;;;;;4914311;29;20039;-86
2023/02/11 20:01:18;;;;;;;125.35;62.50;;;;;;;;;;4891777;29;20028;-86
2023/02/11 20:04:02;;;;;;;132.02;62.92;;;;;;;;;;4912641;29;20100;-86
2023/02/11 20:06:30;;;;;;;126.20;63.90;;;;;;;;;;4915174;29;20078;-87
2023/02/11 20:08:57;;;;;;;108.25;56.38;;;;;;;;;;4903544;29;20039;-86
2023/02/11 20:11:24;;;;;;;105.72;56.03;;;;;;;;;;4902933;29;20021;-88
2023/02/11 20:13:50;;;;;;;114.78;57.28;;;;;;;;;;4902675;29;20024;-87
2023/02/11 20:16:18;;;;;;;111.78;55.22;;;;;;;;;;4902688;29;20439;-86
2023/02/11 20:21:50;;;;;;;121.75;60.90;;;;;;;;;;4902782;29;20043;-87
2023/02/11 20:24:17;;;;;;;103.35;55.45;;;;;;;;;;4902790;29;20331;-87
2023/02/11 20:26:44;;;;;;;105.85;52.80;;;;;;;;;;4917639;29;20059;-86
2023/02/11 20:29:10;;;;;;;114.22;54.72;;;;;;;;;;4913341;29;20032;-88
2023/02/11 20:31:36;;;;;;;104.72;51.65;;;;;;;;;;4902059;29;20056;-88
2023/02/11 20:34:03;;;;;;;113.13;52.88;;;;;;;;;;4885692;29;20033;-87
2023/02/11 20:36:30;;;;;;;120.57;55.90;;;;;;;;;;4886107;29;20327;-87
2023/02/11 20:38:57;;;;;;;116.47;56.70;;;;;;;;;;4904299;29;20407;-87
2023/02/11 20:41:24;;;;;;;111.25;53.28;;;;;;;;;;4904178;29;20319;-86
2023/02/11 20:43:52;;;;;;;103.40;53.08;;;;;;;;;;4898791;29;20025;-87
2023/02/11 20:46:19;;;;;;;113.63;55.00;;;;;;;;;;4905416;29;20025;-86
2023/02/11 20:48:45;;;;;;;119.00;60.65;;;;;;;;;;4905469;29;20035;-86
2023/02/11 20:51:14;;;;;;;139.50;73.85;;;;;;;;;;4913009;29;20032;-86
2023/02/11 20:53:42;;;;;;;146.45;75.40;;;;;;;;;;4885978;29;20029;-86
2023/02/11 20:56:10;;;;;;;142.90;73.28;;;;;;;;;;4885260;29;20426;-86
2023/02/11 20:58:36;;;;;;;160.98;88.20;;;;;;;;;;4888604;29;20320;-86
2023/02/11 21:01:15;;;;;;;144.40;78.70;;;;;;;;;;4911623;29;20036;-86
2023/02/11 21:06:46;;;;;;;108.13;54.20;;;;;;;;;;4921118;29;20111;-86
2023/02/11 21:09:13;;;;;;;103.85;51.75;;;;;;;;;;4919667;29;20032;-85
2023/02/11 21:11:39;;;;;;;94.13;48.28;;;;;;;;;;4919487;29;20502;-86
2023/02/11 21:14:06;;;;;;;97.38;53.28;;;;;;;;;;4919684;29;20052;-86
2023/02/11 21:16:32;;;;;;;106.13;56.50;;;;;;;;;;4921223;29;20033;-86
2023/02/11 21:22:39;;;;;;;111.88;55.88;;;;;;;;;;4901522;29;20047;-86
2023/02/11 21:25:05;;;;;;;108.68;50.75;;;;;;;;;;4899317;29;20047;-87
2023/02/11 21:27:33;;;;;;;89.85;45.90;;;;;;;;;;4892839;29;20408;-85
2023/02/11 21:30:00;;;;;;;84.55;44.90;;;;;;;;;;4893181;29;20024;-86
2023/02/11 21:32:32;;;;;;;85.22;44.10;;;;;;;;;;4909307;29;20052;-86
2023/02/11 21:34:58;;;;;;;78.03;41.28;;;;;;;;;;4903768;29;20081;-87
2023/02/11 21:37:25;;;;;;;71.78;40.78;;;;;;;;;;4910610;29;20359;-87
2023/02/11 21:39:51;;;;;;;70.55;38.85;;;;;;;;;;4910356;29;20037;-86
2023/02/11 21:42:17;;;;;;;70.88;38.78;;;;;;;;;;4901250;29;20041;-84
2023/02/11 21:44:43;;;;;;;67.60;37.38;;;;;;;;;;4901381;29;20025;-86
2023/02/11 21:47:09;;;;;;;66.65;36.67;;;;;;;;;;4884835;29;20032;-85
2023/02/11 21:49:35;;;;;;;64.55;36.17;;;;;;;;;;4886340;29;20028;-87
2023/02/11 21:52:01;;;;;;;68.60;39.33;;;;;;;;;;4905320;29;20320;-85
2023/02/11 21:54:30;;;;;;;68.78;39.33;;;;;;;;;;4888288;29;20320;-86
2023/02/11 21:56:57;;;;;;;71.38;40.55;;;;;;;;;;4904856;29;20141;-86
2023/02/11 21:59:23;;;;;;;69.68;38.67;;;;;;;;;;4904582;29;20376;-86
2023/02/11 22:01:49;;;;;;;69.05;38.83;;;;;;;;;;4904419;29;20049;-86
2023/02/11 22:04:16;;;;;;;110.00;53.20;;;;;;;;;;4887365;29;20344;-86
2023/02/11 22:06:42;;;;;;;161.25;73.95;;;;;;;;;;4914919;29;20032;-86
2023/02/11 22:09:09;;;;;;;200.75;75.63;;;;;;;;;;4898455;29;20036;-86
2023/02/11 22:11:39;;;;;;;187.02;69.18;;;;;;;;;;4918905;29;20423;-86
2023/02/11 22:14:05;;;;;;;117.00;52.90;;;;;;;;;;4914241;29;20043;-86
2023/02/11 22:16:31;;;;;;;148.93;60.80;;;;;;;;;;4914411;29;20300;-86
2023/02/11 22:18:57;;;;;;;124.30;55.42;;;;;;;;;;4917038;29;20028;-86
2023/02/11 22:21:23;;;;;;;89.15;48.22;;;;;;;;;;4915414;29;20452;-86
2023/02/11 22:23:50;;;;;;;79.55;43.80;;;;;;;;;;4923041;29;20114;-86
2023/02/11 22:26:18;;;;;;;85.07;45.45;;;;;;;;;;4922925;29;20028;-86
2023/02/11 22:28:44;;;;;;;85.35;45.78;;;;;;;;;;4923310;29;20020;-85
2023/02/11 22:31:17;;;;;;;91.00;45.92;;;;;;;;;;4922869;29;20020;-86
2023/02/11 22:33:43;;;;;;;93.65;47.60;;;;;;;;;;4922863;29;20063;-86
2023/02/11 22:36:23;;;;;;;95.55;48.03;;;;;;;;;;4923211;29;20132;-86
2023/02/11 22:38:49;;;;;;;105.43;49.75;;;;;;;;;;4923164;29;20028;-87
2023/02/11 22:41:16;;;;;;;99.15;48.35;;;;;;;;;;4922951;29;20255;-86
2023/02/11 22:43:42;;;;;;;94.22;47.28;;;;;;;;;;4922652;29;20035;-85
2023/02/11 22:46:10;;;;;;;95.38;47.30;;;;;;;;;;4922698;29;20411;-87
2023/02/11 22:51:56;;;;;;;82.90;40.03;;;;;;;;;;4922822;29;20035;-86
2023/02/11 22:54:22;;;;;;;60.65;34.17;;;;;;;;;;4922909;29;20024;-87
2023/02/11 22:56:52;;;;;;;62.88;36.63;;;;;;;;;;4905890;29;20028;-86
2023/02/11 22:59:18;;;;;;;68.40;36.95;;;;;;;;;;4922707;29;20099;-86
2023/02/11 23:01:44;;;;;;;61.97;34.72;;;;;;;;;;4905237;29;20034;-87
2023/02/11 23:04:12;;;;;;;61.35;35.28;;;;;;;;;;4922481;29;20031;-86
2023/02/11 23:06:38;;;;;;;66.43;36.78;;;;;;;;;;4905899;29;20035;-86
2023/02/11 23:09:09;;;;;;;59.60;34.45;;;;;;;;;;4905804;29;20020;-86
2023/02/11 23:11:35;;;;;;;62.22;35.95;;;;;;;;;;4922010;29;20047;-87
2023/02/11 23:14:01;;;;;;;57.50;34.22;;;;;;;;;;4922307;29;20036;-86
2023/02/11 23:16:30;;;;;;;59.38;34.25;;;;;;;;;;4922525;29;20063;-87
2023/02/11 23:19:15;;;;;;;59.55;34.58;;;;;;;;;;4905708;29;20028;-86
2023/02/11 23:21:42;;;;;;;64.22;35.03;;;;;;;;;;4922084;29;20028;-87
2023/02/11 23:24:10;;;;;;;60.40;34.53;;;;;;;;;;4922140;29;20111;-85
2023/02/11 23:26:37;;;;;;;55.83;33.38;;;;;;;;;;4922035;29;20044;-87
2023/02/11 23:29:03;;;;;;;56.25;33.22;;;;;;;;;;4904706;29;20070;-86
2023/02/11 23:31:36;;;;;;;63.28;35.25;;;;;;;;;;4905142;29;20043;-86
2023/02/11 23:34:02;;;;;;;;;;;;;;;;;;4905730;29;20032;-86
2023/02/11 23:36:28;;;;;;;62.60;34.17;;;;;;;;;;4922234;29;19911;-86
2023/02/11 23:38:54;;;;;;;57.35;34.47;;;;;;;;;;4921932;29;20415;-86
2023/02/11 23:41:21;;;;;;;64.13;34.50;;;;;;;;;;4922197;29;20055;-86
2023/02/11 23:43:51;;;;;;;60.97;34.15;;;;;;;;;;4921779;29;20027;-86
2023/02/11 23:46:17;;;;;;;65.47;35.78;;;;;;;;;;4905157;29;20043;-86
2023/02/11 23:49:01;;;;;;;65.30;37.25;;;;;;;;;;4921698;29;20427;-86
2023/02/11 23:51:28;;;;;;;59.03;35.00;;;;;;;;;;4922044;29;20024;-86
2023/02/11 23:53:55;;;;;;;66.30;36.95;;;;;;;;;;4906726;29;20135;-86
2023/02/11 23:56:27;;;;;;;66.72;36.80;;;;;;;;;;4906158;29;20020;-86
2023/02/11 23:58:55;;;;;;;62.42;35.05;;;;;;;;;;4921579;29;20039;-87
